Bridge Lake, Canada
Current Conditions -  °F | °C
As of 8:43 PM on Saturday 20 Dec 2014 (Local Time) from CYIN Reporting Station
Unknown Precip Unknown Precip  
Wind Chill: 21°   Ceiling: 10000
Heat Index: 32°   Visibility: 9mi
Dew Point: 30°   Wind: 16mph
Humidity: 93%   Direction: 130°SE
Pressure: 29.17"   Gusts: 25mph
Location:  51.48°N, 120.7°W
Report Text: CYIN 210443Z AUTO 13014G22KT 9SM -UP BKN100 BKN120 OVC140 00/M01 A2917 RMK SLP904
Loading
Personal Weather Stations






























Interactive Weather Map New forecast layout! Learn more

10-Day Weather Forecast

Advertisements
Track Severe Weather on mobile